Time;durP1;ratioP1;P1;durP2;ratioP2;P2;SDS_P1;SDS_P2;PMS_P1;PMS_P2;Temp;Humidity;BMP_temperature;BMP_pressure;BME280_temperature;BME280_humidity;BME280_pressure;Samples;Min_cycle;Max_cycle;Signal;HPM_P1;HPM_P2
2023/10/21 00:02:14;;;;;;;0.77;0.10;;;;;;;5.40;72.09;101721.25;6148615;23;20105;-74
2023/10/21 00:04:41;;;;;;;2.55;0.20;;;;;;;5.41;71.93;101725.63;6149578;23;20025;-74
2023/10/21 00:07:08;;;;;;;1.85;0.22;;;;;;;5.40;71.99;101718.66;6146446;23;20022;-75
2023/10/21 00:09:34;;;;;;;2.58;0.30;;;;;;;5.40;72.41;101723.84;6148964;23;20021;-74
2023/10/21 00:12:01;;;;;;;2.35;0.22;;;;;;;5.41;72.51;101717.84;6147883;23;20480;-74
2023/10/21 00:14:28;;;;;;;4.57;0.30;;;;;;;5.42;72.46;101719.59;6148379;23;20448;-75
2023/10/21 00:16:57;;;;;;;3.90;0.22;;;;;;;5.42;72.67;101717.00;6149283;23;20088;-75
2023/10/21 00:19:23;;;;;;;2.47;0.60;;;;;;;5.41;72.41;101707.47;6147926;23;20022;-74
2023/10/21 00:21:50;;;;;;;1.25;0.20;;;;;;;5.42;72.05;101709.22;6143519;23;20025;-74
2023/10/21 00:24:17;;;;;;;3.63;0.20;;;;;;;5.43;72.06;101715.25;6147175;23;20036;-74
2023/10/21 00:26:47;;;;;;;2.15;0.10;;;;;;;5.41;71.68;101699.72;6148600;23;20032;-74
2023/10/21 00:29:14;;;;;;;1.25;0.20;;;;;;;5.40;71.50;101705.72;6148158;23;20474;-75
2023/10/21 00:31:41;;;;;;;4.47;0.20;;;;;;;5.41;71.21;101691.94;6149721;23;20057;-74
2023/10/21 00:34:09;;;;;;;3.15;0.20;;;;;;;5.37;70.15;101690.97;6144753;23;20125;-75
2023/10/21 00:36:36;;;;;;;3.22;0.30;;;;;;;5.36;70.29;101696.16;6148822;23;20018;-76
2023/10/21 00:39:03;;;;;;;12.73;0.22;;;;;;;5.35;70.10;101696.97;6147746;23;20021;-75
2023/10/21 00:41:30;;;;;;;0.90;0.13;;;;;;;5.34;70.02;101703.88;6150266;23;20021;-75
2023/10/21 00:43:57;;;;;;;1.92;0.20;;;;;;;5.33;69.81;101683.16;6146258;23;20025;-75
2023/10/21 00:46:26;;;;;;;4.22;0.30;;;;;;;5.32;69.98;101691.75;6122855;23;20021;-75
2023/10/21 00:48:53;;;;;;;6.72;0.40;;;;;;;5.32;69.42;101689.16;6148605;23;20021;-74
2023/10/21 00:51:22;;;;;;;1.30;0.20;;;;;;;5.31;69.32;101701.25;6147133;23;20360;-74
2023/10/21 00:53:49;;;;;;;3.80;0.30;;;;;;;5.31;69.32;101696.06;6147664;23;20018;-74
2023/10/21 00:56:16;;;;;;;1.27;0.20;;;;;;;5.31;69.02;101697.78;6148893;23;20027;-75
2023/10/21 00:58:43;;;;;;;2.65;0.50;;;;;;;5.27;68.95;101696.00;6148289;23;20018;-75
2023/10/21 01:01:13;;;;;;;1.27;0.20;;;;;;;5.30;68.97;101696.06;6149286;23;20017;-75
2023/10/21 01:03:40;;;;;;;3.00;0.25;;;;;;;5.29;68.40;101708.09;6145901;23;20460;-76
2023/10/21 01:06:06;;;;;;;3.25;0.30;;;;;;;5.26;68.49;101702.00;6149491;23;20080;-75
2023/10/21 01:08:41;;;;;;;4.03;0.20;;;;;;;5.26;68.20;101697.69;6147936;23;20025;-76
2023/10/21 01:11:08;;;;;;;1.17;0.20;;;;;;;5.25;67.77;101706.31;6149227;23;20018;-76
2023/10/21 01:13:35;;;;;;;0.93;0.30;;;;;;;5.24;68.23;101709.75;6149415;23;20080;-76
2023/10/21 01:16:02;;;;;;;2.20;0.32;;;;;;;5.25;67.80;101706.31;6149047;23;20100;-76
2023/10/21 01:18:33;;;;;;;2.33;0.20;;;;;;;5.24;67.73;101699.41;6146592;23;20017;-75
2023/10/21 01:21:00;;;;;;;3.70;0.30;;;;;;;5.23;68.16;101694.19;6148651;23;20025;-76
2023/10/21 01:23:28;;;;;;;2.17;0.20;;;;;;;5.24;68.07;101698.53;6147500;23;20465;-75
2023/10/21 01:25:55;;;;;;;6.05;0.40;;;;;;;5.24;67.83;101698.53;6149023;23;20060;-74
2023/10/21 01:28:22;;;;;;;3.67;0.20;;;;;;;5.25;67.43;101713.22;6148729;23;20349;-76
2023/10/21 01:30:49;;;;;;;3.75;0.95;;;;;;;5.24;67.57;101698.53;6148867;23;20029;-76
2023/10/21 01:33:16;;;;;;;2.95;0.68;;;;;;;5.24;67.65;101714.94;6148763;23;20468;-76
2023/10/21 01:35:43;;;;;;;1.23;0.30;;;;;;;5.24;67.45;101701.13;6147901;23;20432;-76
2023/10/21 01:38:10;;;;;;;3.92;0.20;;;;;;;5.25;67.28;101705.44;6148114;23;20031;-76
2023/10/21 01:40:39;;;;;;;5.20;0.20;;;;;;;5.25;67.51;101695.97;6149514;23;20540;-77
2023/10/21 01:43:06;;;;;;;1.98;0.30;;;;;;;5.25;67.28;101695.09;6143494;23;20028;-76
2023/10/21 01:45:35;;;;;;;0.60;0.15;;;;;;;5.24;67.22;101689.03;6148983;23;20025;-76
2023/10/21 01:48:02;;;;;;;2.90;0.10;;;;;;;5.26;67.30;101676.09;6148580;23;20017;-76
2023/10/21 01:50:29;;;;;;;2.30;0.17;;;;;;;5.26;66.93;101673.50;6149173;23;20022;-71
2023/10/21 01:52:56;;;;;;;3.28;0.30;;;;;;;5.25;66.69;101677.81;6146752;23;20457;-72
2023/10/21 01:55:24;;;;;;;3.63;0.20;;;;;;;5.22;66.58;101654.47;6147029;23;20028;-72
2023/10/21 01:57:52;;;;;;;3.55;0.22;;;;;;;5.24;66.41;101649.31;6148446;23;20022;-73
2023/10/21 02:00:20;;;;;;;1.10;0.20;;;;;;;5.24;66.03;101647.59;6146464;23;20021;-72
2023/10/21 02:02:50;;;;;;;0.20;0.10;;;;;;;5.25;66.40;101653.66;6145374;23;20499;-71
2023/10/21 02:05:18;;;;;;;1.27;0.10;;;;;;;5.25;65.65;101649.31;6147977;23;20033;-72
2023/10/21 02:07:45;;;;;;;4.35;0.30;;;;;;;5.25;65.50;101635.50;6145496;23;20543;-71
2023/10/21 02:10:12;;;;;;;2.60;0.20;;;;;;;5.25;65.51;101638.09;6148503;23;20024;-73
2023/10/21 02:12:39;;;;;;;2.08;0.30;;;;;;;5.25;65.51;101625.16;6148815;23;20028;-74
2023/10/21 02:15:11;;;;;;;1.70;0.30;;;;;;;5.26;65.07;101613.94;6146389;23;20022;-73
2023/10/21 02:17:39;;;;;;;1.55;0.25;;;;;;;5.25;65.29;101613.06;6135720;23;20032;-73
2023/10/21 02:20:07;;;;;;;5.07;0.63;;;;;;;5.25;65.49;101612.19;6144524;23;20030;-73
2023/10/21 02:22:34;;;;;;;3.30;0.15;;;;;;;5.26;65.25;101609.63;6147499;23;20028;-74
2023/10/21 02:25:02;;;;;;;4.68;0.50;;;;;;;5.27;65.05;101615.69;6147603;23;20033;-74
2023/10/21 02:27:29;;;;;;;3.05;0.17;;;;;;;5.27;65.15;101606.19;6147781;23;20117;-74
2023/10/21 02:29:56;;;;;;;5.50;0.73;;;;;;;5.27;65.17;101601.03;6147101;23;20093;-73
2023/10/21 02:32:24;;;;;;;3.10;0.20;;;;;;;5.29;64.99;101603.63;6145713;23;20028;-72
2023/10/21 02:34:55;;;;;;;0.90;0.15;;;;;;;5.30;64.60;101592.44;6144166;23;20662;-73
2023/10/21 02:37:24;;;;;;;4.10;0.65;;;;;;;5.29;64.66;101598.44;6145435;23;20025;-73
2023/10/21 02:39:51;;;;;;;1.67;0.20;;;;;;;5.30;64.25;101595.03;6147641;23;20119;-73
2023/10/21 02:42:18;;;;;;;1.33;0.10;;;;;;;5.30;64.28;101605.38;6146679;23;20026;-72
2023/10/21 02:44:45;;;;;;;2.33;0.10;;;;;;;5.30;64.40;101614.03;6147795;23;20025;-73
2023/10/21 02:47:13;;;;;;;0.75;0.10;;;;;;;5.31;64.52;101596.75;6146625;23;20076;-75
2023/10/21 02:49:42;;;;;;;1.85;0.13;;;;;;;5.31;64.30;101591.56;6147772;23;20420;-73
2023/10/21 02:52:09;;;;;;;4.28;0.20;;;;;;;5.32;64.43;101603.66;6147543;23;20029;-73
2023/10/21 02:54:36;;;;;;;3.40;0.20;;;;;;;5.31;64.26;101592.44;6146291;23;20028;-72
2023/10/21 02:57:03;;;;;;;3.92;0.10;;;;;;;5.33;64.15;101605.44;6148148;23;20022;-73
2023/10/21 02:59:33;;;;;;;4.95;0.30;;;;;;;5.34;64.29;101595.06;6147204;23;20752;-77
2023/10/21 03:02:00;;;;;;;1.48;0.35;;;;;;;5.35;64.48;101588.16;6152181;23;20024;-77
2023/10/21 03:04:26;;;;;;;2.63;0.20;;;;;;;5.35;63.98;101578.72;6151201;23;20025;-78
2023/10/21 03:06:55;;;;;;;2.58;0.20;;;;;;;5.35;64.17;101591.66;6151489;23;20720;-77
2023/10/21 03:09:22;;;;;;;1.73;0.30;;;;;;;5.37;64.21;101599.44;6150698;23;20025;-78
2023/10/21 03:11:49;;;;;;;4.57;0.20;;;;;;;5.37;64.41;101589.06;6149942;23;20029;-77
2023/10/21 03:14:15;;;;;;;2.05;0.10;;;;;;;5.37;64.38;101592.53;6151167;23;20025;-78
2023/10/21 03:16:42;;;;;;;2.05;0.15;;;;;;;5.39;64.37;101600.34;6151550;23;20017;-80
2023/10/21 03:19:09;;;;;;;5.43;0.43;;;;;;;5.37;64.08;101609.81;6150456;23;20032;-77
2023/10/21 03:21:35;;;;;;;2.33;0.17;;;;;;;5.40;64.05;101612.44;6147626;23;20026;-75
2023/10/21 03:24:04;;;;;;;3.58;0.50;;;;;;;5.33;64.10;101600.25;6144434;23;20096;-75
2023/10/21 03:26:31;;;;;;;5.10;0.40;;;;;;;5.41;64.44;101602.13;6147646;23;20338;-76
2023/10/21 03:28:58;;;;;;;5.20;0.20;;;;;;;5.41;64.12;101609.03;6145561;23;20032;-76
2023/10/21 03:31:25;;;;;;;4.40;0.28;;;;;;;5.42;63.58;101605.56;6149239;23;20426;-75
2023/10/21 03:33:51;;;;;;;3.42;0.13;;;;;;;5.43;63.35;101606.44;6147292;23;20032;-75
2023/10/21 03:36:18;;;;;;;3.92;0.30;;;;;;;5.41;63.45;101611.63;6148378;23;20036;-76
2023/10/21 03:38:45;;;;;;;2.60;0.20;;;;;;;5.43;63.59;101612.47;6148653;23;20029;-75
2023/10/21 03:41:14;;;;;;;2.55;0.25;;;;;;;5.41;62.99;101617.66;6147133;23;20018;-76
2023/10/21 03:43:41;;;;;;;3.63;0.30;;;;;;;5.40;62.85;101607.25;6148404;23;20652;-75
2023/10/21 03:46:09;;;;;;;0.28;0.10;;;;;;;5.40;62.83;101612.44;6146402;23;20488;-76
2023/10/21 03:48:37;;;;;;;4.10;0.30;;;;;;;5.40;63.03;101612.44;6146604;23;20017;-75
2023/10/21 03:51:05;;;;;;;1.98;0.20;;;;;;;5.40;63.17;101604.66;6147384;23;20032;-76
2023/10/21 03:53:32;;;;;;;6.25;0.20;;;;;;;5.39;62.67;101606.38;6145039;23;20021;-75
2023/10/21 03:55:59;;;;;;;1.67;0.10;;;;;;;5.40;63.07;101613.31;6147885;23;20032;-76
2023/10/21 03:58:28;;;;;;;1.30;0.10;;;;;;;5.39;63.54;101606.38;6145498;23;20026;-75
2023/10/21 04:00:57;;;;;;;7.13;0.38;;;;;;;5.40;63.17;101615.91;6145768;23;20018;-76
2023/10/21 04:03:24;;;;;;;1.60;0.25;;;;;;;5.41;62.91;101614.19;6145429;23;20057;-75
2023/10/21 04:05:51;;;;;;;1.98;0.20;;;;;;;5.42;63.21;101610.75;6146573;23;20127;-75
2023/10/21 04:08:18;;;;;;;2.47;0.15;;;;;;;5.41;63.22;101614.19;6145859;23;20021;-76
2023/10/21 04:10:45;;;;;;;0.55;0.13;;;;;;;5.40;63.18;101610.72;6149930;23;20452;-77
2023/10/21 04:13:12;;;;;;;5.55;0.25;;;;;;;5.32;63.12;101588.13;6150611;23;20759;-79
2023/10/21 04:15:41;;;;;;;0.55;0.20;;;;;;;5.40;62.90;101602.06;6151373;23;20348;-79
2023/10/21 04:18:08;;;;;;;1.80;0.20;;;;;;;5.39;63.05;101611.56;6151852;23;20027;-77
2023/10/21 04:20:35;;;;;;;3.78;0.45;;;;;;;5.41;63.29;101603.84;6151845;23;20456;-78
2023/10/21 04:23:02;;;;;;;4.88;0.25;;;;;;;5.40;63.11;101608.13;6149767;23;20036;-77
2023/10/21 04:25:29;;;;;;;2.65;0.20;;;;;;;5.41;63.51;101602.13;6149692;23;20518;-78
2023/10/21 04:27:56;;;;;;;3.88;1.05;;;;;;;5.41;63.49;101585.69;6150156;23;20472;-77
2023/10/21 04:30:23;;;;;;;2.78;0.52;;;;;;;5.41;63.53;101583.97;6149025;23;20029;-73
2023/10/21 04:32:52;;;;;;;2.25;0.20;;;;;;;5.39;63.35;101566.66;6146832;23;20385;-72
2023/10/21 04:35:19;;;;;;;1.65;0.10;;;;;;;5.41;63.47;101571.03;6145147;23;20045;-72
2023/10/21 04:37:46;;;;;;;6.65;0.20;;;;;;;5.41;63.55;101576.22;6145984;23;20017;-72
2023/10/21 04:40:14;;;;;;;3.55;0.20;;;;;;;5.41;63.11;101567.56;6145547;23;20021;-73
2023/10/21 04:42:41;;;;;;;1.23;0.13;;;;;;;5.41;63.12;101583.13;6145165;23;20021;-72
2023/10/21 04:45:09;;;;;;;6.38;0.30;;;;;;;5.40;63.09;101568.41;6146337;23;20033;-73
2023/10/21 04:47:36;;;;;;;0.93;0.20;;;;;;;5.41;63.38;101575.34;6144105;23;20021;-74
2023/10/21 04:50:06;;;;;;;2.65;0.20;;;;;;;5.41;62.98;101575.34;6146607;23;20017;-73
2023/10/21 04:52:33;;;;;;;6.90;0.40;;;;;;;5.41;62.67;101577.94;6145418;23;20045;-74
2023/10/21 04:55:01;;;;;;;1.77;0.13;;;;;;;5.41;62.70;101583.13;6145309;23;20456;-73
2023/10/21 04:57:28;;;;;;;2.58;0.15;;;;;;;5.39;62.45;101583.06;6146464;23;20021;-73
2023/10/21 04:59:55;;;;;;;1.70;0.30;;;;;;;5.41;62.53;101573.63;6143740;23;20037;-73
2023/10/21 05:02:22;;;;;;;4.05;0.20;;;;;;;5.40;62.91;101594.31;6145830;23;20041;-73
2023/10/21 05:04:49;;;;;;;2.05;0.20;;;;;;;5.41;62.53;101609.03;6146011;23;20022;-73
2023/10/21 05:07:17;;;;;;;1.02;0.10;;;;;;;5.41;62.52;101615.06;6145959;23;20025;-74
2023/10/21 05:09:44;;;;;;;3.13;0.50;;;;;;;5.42;62.55;101626.31;6146184;23;20069;-74
2023/10/21 05:12:11;;;;;;;0.90;0.22;;;;;;;5.43;62.54;101627.16;6145333;23;20025;-73
2023/10/21 05:14:38;;;;;;;3.83;0.20;;;;;;;5.44;62.39;101624.63;6144599;23;20021;-74
2023/10/21 05:17:05;;;;;;;8.23;0.10;;;;;;;5.44;62.17;101634.13;6146318;23;20124;-73
2023/10/21 05:19:32;;;;;;;3.17;0.20;;;;;;;5.43;62.22;101633.22;6145120;23;20053;-76
2023/10/21 05:21:59;;;;;;;1.42;0.17;;;;;;;5.43;62.72;101630.63;6146152;23;20027;-75
2023/10/21 05:24:27;;;;;;;0.80;0.10;;;;;;;5.43;62.73;101625.44;6142874;23;20028;-75
2023/10/21 05:26:55;;;;;;;3.03;0.20;;;;;;;5.43;62.80;101635.81;6145891;23;20032;-75
2023/10/21 05:29:22;;;;;;;7.20;0.20;;;;;;;5.43;62.46;101621.97;6145648;23;20465;-76
2023/10/21 05:31:49;;;;;;;1.83;0.10;;;;;;;5.46;62.72;101634.97;6144642;23;20025;-75
2023/10/21 05:34:19;;;;;;;3.47;0.30;;;;;;;5.46;62.27;101630.66;6146399;23;20025;-75
2023/10/21 05:36:46;;;;;;;3.28;0.10;;;;;;;5.45;62.14;101636.72;6143931;23;20060;-75
2023/10/21 05:39:13;;;;;;;2.28;0.20;;;;;;;5.44;62.56;101632.38;6145650;23;20488;-74
2023/10/21 05:41:42;;;;;;;1.40;0.20;;;;;;;5.44;62.43;101624.63;6145743;23;20472;-75
2023/10/21 05:44:09;;;;;;;2.40;0.20;;;;;;;5.43;62.22;101630.63;6146507;23;20018;-76
2023/10/21 05:46:36;;;;;;;3.60;0.30;;;;;;;5.47;62.35;101634.16;6144131;23;20026;-77
2023/10/21 05:49:04;;;;;;;3.97;0.50;;;;;;;5.43;62.00;101620.25;6144543;23;20017;-76
2023/10/21 05:51:31;;;;;;;0.75;0.10;;;;;;;5.43;62.01;101615.06;6146573;23;20052;-77
2023/10/21 05:53:58;;;;;;;6.57;0.25;;;;;;;5.45;62.26;101628.94;6145757;23;20053;-74
2023/10/21 05:56:25;;;;;;;3.70;0.70;;;;;;;5.47;62.13;101640.22;6147004;23;20025;-76
2023/10/21 05:58:54;;;;;;;7.13;0.38;;;;;;;5.48;62.29;101641.06;6144402;23;20022;-75
2023/10/21 06:01:21;;;;;;;7.93;0.20;;;;;;;5.49;62.12;101642.81;6145780;23;20028;-74
2023/10/21 06:03:48;;;;;;;2.78;0.30;;;;;;;5.49;62.03;101633.31;6145107;23;20022;-76
2023/10/21 06:06:16;;;;;;;5.85;0.77;;;;;;;5.49;62.17;101635.91;6148573;23;20026;-76
2023/10/21 06:08:44;;;;;;;2.03;0.10;;;;;;;5.52;62.02;101637.69;6145570;23;20053;-77
2023/10/21 06:11:11;;;;;;;1.95;0.20;;;;;;;5.51;62.34;101643.72;6149283;23;20029;-76
2023/10/21 06:13:38;;;;;;;2.05;0.35;;;;;;;5.52;62.62;101635.97;6147329;23;20036;-76
2023/10/21 06:16:08;;;;;;;5.93;0.28;;;;;;;5.53;62.62;101642.03;6147228;23;20032;-76
2023/10/21 06:18:36;;;;;;;2.05;0.35;;;;;;;5.54;62.48;101639.44;6147477;23;20025;-75
2023/10/21 06:21:04;;;;;;;3.13;0.32;;;;;;;5.54;62.81;101630.81;6121906;23;20021;-77
2023/10/21 06:23:32;;;;;;;3.28;0.20;;;;;;;5.54;62.52;101626.50;6148601;23;20032;-76
2023/10/21 06:25:59;;;;;;;4.90;0.10;;;;;;;5.56;62.64;101636.88;6147632;23;20026;-76
2023/10/21 06:28:26;;;;;;;7.32;0.38;;;;;;;5.56;62.34;101626.53;6146679;23;20409;-76
2023/10/21 06:30:53;;;;;;;4.85;0.47;;;;;;;5.57;62.23;101631.72;6145803;23;20028;-74
2023/10/21 06:33:21;;;;;;;3.15;0.73;;;;;;;5.57;62.28;101615.31;6145288;23;20028;-74
2023/10/21 06:35:49;;;;;;;2.80;0.20;;;;;;;5.58;61.58;101622.25;6145739;23;20403;-74
2023/10/21 06:38:16;;;;;;;2.42;0.20;;;;;;;5.59;61.46;101613.63;6145411;23;20033;-74
2023/10/21 06:40:44;;;;;;;5.88;0.40;;;;;;;5.60;61.36;101618.81;6145696;23;20088;-74
2023/10/21 06:43:11;;;;;;;2.53;0.10;;;;;;;5.60;61.38;101625.72;6145030;23;20029;-74
2023/10/21 06:45:38;;;;;;;7.28;0.30;;;;;;;5.61;61.41;101612.78;6145115;23;20021;-74
2023/10/21 06:48:06;;;;;;;3.78;0.28;;;;;;;5.62;61.23;101614.53;6141904;23;20029;-73
2023/10/21 06:50:35;;;;;;;5.55;0.40;;;;;;;5.64;61.65;101622.34;6142685;23;20665;-73
2023/10/21 06:53:02;;;;;;;1.33;0.20;;;;;;;5.61;61.43;101602.41;6146929;23;20072;-74
2023/10/21 06:55:29;;;;;;;6.88;0.85;;;;;;;5.64;60.87;101627.53;6144273;23;20024;-74
2023/10/21 06:57:56;;;;;;;3.40;0.40;;;;;;;5.62;60.86;101622.28;6149125;23;20028;-76
2023/10/21 07:00:23;;;;;;;1.00;0.10;;;;;;;5.66;61.17;101617.16;6150630;23;20025;-75
2023/10/21 07:02:50;;;;;;;0.98;0.20;;;;;;;5.67;61.57;101622.38;6148347;23;20468;-74
2023/10/21 07:05:17;;;;;;;4.75;1.00;;;;;;;5.67;61.58;101616.34;6146756;23;20099;-74
2023/10/21 07:07:46;;;;;;;6.35;0.40;;;;;;;5.70;61.74;101629.34;6147955;23;20072;-75
2023/10/21 07:10:12;;;;;;;4.10;0.20;;;;;;;5.66;61.86;101609.38;6146302;23;20455;-74
2023/10/21 07:12:39;;;;;;;1.25;0.20;;;;;;;5.71;62.18;101623.28;6147569;23;20330;-75
2023/10/21 07:15:09;;;;;;;3.90;0.20;;;;;;;5.71;62.41;101607.75;6145403;23;20025;-76
2023/10/21 07:17:37;;;;;;;4.22;1.27;;;;;;;5.73;61.87;101611.22;6147483;23;20025;-74
2023/10/21 07:20:05;;;;;;;5.93;0.55;;;;;;;5.73;62.42;101621.59;6147773;23;20018;-74
2023/10/21 07:22:32;;;;;;;5.25;1.30;;;;;;;5.74;62.65;101612.97;6143791;23;20021;-74
2023/10/21 07:25:03;;;;;;;7.18;0.15;;;;;;;5.75;62.60;101610.41;6148030;23;20021;-76
2023/10/21 07:27:31;;;;;;;1.83;0.30;;;;;;;5.76;62.70;101616.47;6145902;23;20053;-75
2023/10/21 07:29:57;;;;;;;1.42;0.30;;;;;;;5.68;62.98;101597.31;6147408;23;20028;-74
2023/10/21 07:32:24;;;;;;;4.32;0.30;;;;;;;5.80;62.96;101613.06;6147446;23;20017;-74
2023/10/21 07:34:51;;;;;;;4.15;0.30;;;;;;;5.81;63.31;101612.22;6146519;23;20025;-75
2023/10/21 07:37:18;;;;;;;2.42;0.28;;;;;;;5.82;62.88;101611.34;6145739;23;20029;-77
2023/10/21 07:39:45;;;;;;;2.47;0.20;;;;;;;5.83;62.86;101602.72;6146688;23;20021;-74
2023/10/21 07:42:14;;;;;;;4.75;0.77;;;;;;;5.84;63.27;101609.66;6147613;23;20428;-75
2023/10/21 07:44:41;;;;;;;2.58;0.20;;;;;;;5.85;63.48;101616.59;6146237;23;20032;-72
2023/10/21 07:47:08;;;;;;;3.17;0.30;;;;;;;5.81;63.12;101604.44;6147718;23;20539;-83
2023/10/21 07:49:35;;;;;;;6.28;0.30;;;;;;;5.86;63.75;101605.34;6148416;23;20030;-80
2023/10/21 07:52:03;;;;;;;6.88;0.20;;;;;;;5.88;63.30;101601.06;6146950;23;20025;-75
2023/10/21 07:54:30;;;;;;;6.43;0.50;;;;;;;5.89;63.72;101596.75;6149676;23;20022;-75
2023/10/21 07:57:00;;;;;;;1.70;0.30;;;;;;;5.91;63.50;101602.84;6146410;23;20024;-75
2023/10/21 07:59:28;;;;;;;3.80;0.93;;;;;;;5.92;63.76;101601.97;6148576;23;20468;-75
2023/10/21 08:01:55;;;;;;;3.70;0.30;;;;;;;5.94;63.96;101606.38;6151828;23;20025;-81
2023/10/21 08:04:22;;;;;;;7.05;0.40;;;;;;;5.96;64.17;101604.69;6150919;23;20104;-82
2023/10/21 08:06:49;;;;;;;2.40;0.40;;;;;;;5.98;64.25;101612.50;6152438;23;20029;-84
2023/10/21 08:09:19;;;;;;;2.58;0.63;;;;;;;5.99;64.13;101607.31;6150310;23;20028;-83
2023/10/21 08:11:46;;;;;;;4.15;0.50;;;;;;;6.01;63.97;101610.81;6152436;23;20021;-83
2023/10/21 08:14:13;;;;;;;6.20;0.30;;;;;;;6.03;64.24;101609.13;6152001;23;20053;-82
2023/10/21 08:16:42;;;;;;;6.63;0.40;;;;;;;6.06;64.02;101596.19;6151861;23;20024;-82
2023/10/21 08:19:09;;;;;;;2.78;0.30;;;;;;;6.07;64.17;101597.91;6151897;23;20096;-82
2023/10/21 08:21:36;;;;;;;2.38;0.40;;;;;;;6.08;64.25;101597.06;6153010;23;20720;-81
2023/10/21 08:24:04;;;;;;;2.35;0.50;;;;;;;6.10;64.43;101589.31;6150821;23;20028;-82
2023/10/21 08:26:31;;;;;;;4.88;0.45;;;;;;;6.11;64.52;101588.44;6153539;23;20017;-83
2023/10/21 08:28:58;;;;;;;8.00;0.70;;;;;;;6.12;64.79;101572.06;6152241;23;20036;-83
2023/10/21 08:31:25;;;;;;;6.45;0.40;;;;;;;6.13;64.66;101591.06;6152397;23;20449;-78
2023/10/21 08:33:54;;;;;;;7.47;1.02;;;;;;;6.02;64.76;101560.66;6150908;23;20029;-79
2023/10/21 08:36:22;;;;;;;5.70;0.65;;;;;;;6.16;64.93;101575.53;6151921;23;20018;-79
2023/10/21 08:38:50;;;;;;;5.05;0.40;;;;;;;6.17;64.99;101572.94;6151567;23;20049;-79
2023/10/21 08:41:17;;;;;;;3.55;0.50;;;;;;;6.19;64.66;101567.78;6151874;23;20022;-79
2023/10/21 08:43:51;;;;;;;3.50;0.38;;;;;;;6.19;64.99;101585.97;6151583;23;20025;-79
2023/10/21 08:46:19;;;;;;;1.70;0.40;;;;;;;6.21;65.17;101584.25;6151736;23;20126;-80
2023/10/21 08:48:47;;;;;;;5.45;0.50;;;;;;;6.20;65.21;101580.78;6150639;23;20024;-80
2023/10/21 08:51:19;;;;;;;5.05;0.65;;;;;;;6.22;65.36;101589.44;6148516;23;20024;-74
2023/10/21 08:53:47;;;;;;;1.55;0.35;;;;;;;6.24;65.05;101589.47;6143837;23;20032;-73
2023/10/21 08:56:14;;;;;;;3.38;0.50;;;;;;;6.26;65.23;101593.84;6147146;23;20029;-74
2023/10/21 08:58:42;;;;;;;6.50;0.73;;;;;;;6.27;64.92;101574.81;6142757;23;20026;-74
2023/10/21 09:01:10;;;;;;;2.47;0.35;;;;;;;6.28;65.16;101580.88;6145893;23;20021;-73
2023/10/21 09:03:37;;;;;;;2.80;0.90;;;;;;;6.29;65.16;101574.84;6144903;23;20022;-73
2023/10/21 09:06:10;;;;;;;3.55;0.50;;;;;;;6.29;65.18;101564.47;6145265;23;20021;-74
2023/10/21 09:08:40;;;;;;;3.50;0.43;;;;;;;6.28;64.89;101552.34;6145458;23;20030;-74
2023/10/21 09:11:08;;;;;;;3.58;0.32;;;;;;;6.28;64.69;101539.34;6147708;23;20017;-74
2023/10/21 09:13:36;;;;;;;4.30;0.40;;;;;;;6.30;65.09;101540.25;6146977;23;20021;-73
2023/10/21 09:16:04;;;;;;;4.20;0.50;;;;;;;6.32;64.81;101543.75;6145448;23;20021;-74
2023/10/21 09:18:34;;;;;;;2.55;0.40;;;;;;;6.33;65.20;101542.03;6147201;23;20025;-73
2023/10/21 09:21:03;;;;;;;6.90;0.50;;;;;;;6.33;65.12;101532.50;6145267;23;20711;-73
2023/10/21 09:23:31;;;;;;;2.40;0.30;;;;;;;6.34;64.91;101539.41;6146373;23;20404;-74
2023/10/21 09:25:59;;;;;;;5.20;0.50;;;;;;;6.38;65.29;101542.94;6143806;23;20073;-74
2023/10/21 09:28:26;;;;;;;3.05;0.45;;;;;;;6.39;65.63;101547.28;6142349;23;20108;-73
2023/10/21 09:30:58;;;;;;;2.20;0.40;;;;;;;6.42;65.22;101547.31;6142822;23;20401;-73
2023/10/21 09:33:26;;;;;;;8.25;0.57;;;;;;;6.42;65.44;101542.97;6141880;23;20092;-73
2023/10/21 09:36:04;;;;;;;3.17;0.40;;;;;;;6.43;65.58;101544.75;6142465;23;20025;-74
2023/10/21 09:38:36;;;;;;;5.47;0.57;;;;;;;6.43;65.74;101534.34;6144669;23;20030;-73
2023/10/21 09:41:07;;;;;;;2.47;0.30;;;;;;;6.41;65.48;101530.88;6142872;23;20088;-73
2023/10/21 09:43:38;;;;;;;4.07;0.30;;;;;;;6.43;65.81;101536.97;6144334;23;20088;-75
2023/10/21 09:46:06;;;;;;;6.78;1.23;;;;;;;6.43;65.63;101529.16;6143887;23;20021;-75
2023/10/21 09:48:41;;;;;;;2.28;0.30;;;;;;;6.44;66.04;101530.03;6143199;23;20036;-76
2023/10/21 09:51:11;;;;;;;2.38;0.30;;;;;;;6.43;66.04;101521.38;6143664;23;20026;-73
2023/10/21 09:53:42;;;;;;;4.03;0.40;;;;;;;6.44;66.31;101525.72;6133459;23;20465;-73
2023/10/21 09:56:15;;;;;;;1.73;0.50;;;;;;;6.44;66.41;101525.72;6143813;23;20021;-76
2023/10/21 09:58:43;;;;;;;4.43;0.40;;;;;;;6.47;66.16;101517.94;6140205;23;20029;-77
2023/10/21 10:01:10;;;;;;;2.85;0.40;;;;;;;6.47;66.46;101515.34;6144515;23;20029;-73
2023/10/21 10:03:39;;;;;;;5.68;1.35;;;;;;;6.49;66.94;101513.66;6142727;23;20453;-73
2023/10/21 10:06:08;;;;;;;2.92;0.45;;;;;;;6.49;66.86;101499.81;6143089;23;20060;-74
2023/10/21 10:08:36;;;;;;;3.97;0.50;;;;;;;6.47;67.23;101502.38;6142843;23;20021;-73
2023/10/21 10:11:10;;;;;;;3.05;0.40;;;;;;;6.52;66.94;101512.81;6142937;23;20365;-73
2023/10/21 10:13:43;;;;;;;3.72;0.40;;;;;;;6.51;67.02;101498.06;6141271;23;20041;-75
2023/10/21 10:16:21;;;;;;;2.25;0.40;;;;;;;6.55;66.99;101501.59;6144516;23;20045;-74
2023/10/21 10:18:50;;;;;;;2.03;0.40;;;;;;;6.53;66.91;101505.03;6143672;23;20028;-73
2023/10/21 10:21:17;;;;;;;2.55;0.50;;;;;;;6.53;67.12;101494.66;6143069;23;20053;-72
2023/10/21 10:23:50;;;;;;;5.53;0.40;;;;;;;6.53;67.06;101493.78;6144367;23;20041;-73
2023/10/21 10:26:17;;;;;;;2.33;0.57;;;;;;;6.53;67.21;101498.97;6143852;23;20021;-73
2023/10/21 10:28:46;;;;;;;5.78;0.40;;;;;;;6.51;67.29;101500.69;6145118;23;20029;-73
2023/10/21 10:31:13;;;;;;;2.15;0.32;;;;;;;6.54;67.43;101492.91;6145610;23;20030;-72
2023/10/21 10:33:51;;;;;;;2.33;0.63;;;;;;;6.55;67.46;101483.44;6147874;23;20018;-72
2023/10/21 10:36:28;;;;;;;5.70;0.80;;;;;;;6.55;67.55;101478.25;6145908;23;20022;-76
2023/10/21 10:38:55;;;;;;;3.00;0.28;;;;;;;6.54;67.40;101477.34;6147263;23;20361;-72
2023/10/21 10:41:23;;;;;;;3.45;0.25;;;;;;;6.54;67.06;101451.38;6144088;23;20025;-73
2023/10/21 10:43:54;;;;;;;2.65;0.40;;;;;;;6.53;67.05;101463.50;6147228;23;20027;-73
2023/10/21 10:46:22;;;;;;;5.72;0.65;;;;;;;6.52;67.54;101461.78;6145842;23;20393;-75
2023/10/21 10:48:49;;;;;;;3.88;0.25;;;;;;;6.56;67.55;101456.59;6147871;23;20108;-73
2023/10/21 10:51:17;;;;;;;1.95;0.30;;;;;;;6.54;67.47;101461.78;6144564;23;20495;-73
2023/10/21 10:53:47;;;;;;;3.15;0.43;;;;;;;6.55;67.38;101467.84;6146834;23;20021;-73
2023/10/21 10:56:18;;;;;;;2.50;0.52;;;;;;;6.54;67.72;101464.38;6143910;23;20057;-73
2023/10/21 10:58:46;;;;;;;14.80;5.95;;;;;;;6.51;67.28;101449.63;6146869;23;20672;-72
2023/10/21 11:01:25;;;;;;;4.20;0.55;;;;;;;6.56;67.49;101461.78;6145545;23;20037;-72
2023/10/21 11:03:56;;;;;;;16.17;0.55;;;;;;;6.56;67.42;101448.81;6145036;23;20028;-74
2023/10/21 11:06:26;;;;;;;5.82;0.40;;;;;;;6.56;67.53;101443.63;6146186;23;20072;-76
2023/10/21 11:08:53;;;;;;;1.73;0.25;;;;;;;6.58;68.08;101439.31;6145887;23;20186;-74
2023/10/21 11:11:20;;;;;;;6.10;0.30;;;;;;;6.57;67.72;101442.75;6144487;23;20475;-73
2023/10/21 11:13:47;;;;;;;2.53;0.30;;;;;;;6.57;67.98;101430.66;6144404;23;20032;-72
2023/10/21 11:16:15;;;;;;;4.78;0.50;;;;;;;6.57;68.25;101428.03;6147054;23;20713;-73
2023/10/21 11:18:46;;;;;;;6.03;0.30;;;;;;;6.53;67.72;101411.59;6146498;23;20073;-72
2023/10/21 11:21:13;;;;;;;9.80;0.40;;;;;;;6.57;67.93;101422.00;6143443;23;20061;-70
2023/10/21 11:23:39;;;;;;;1.75;0.30;;;;;;;6.57;68.38;101425.44;6146761;23;20028;-70
2023/10/21 11:26:08;;;;;;;7.40;0.40;;;;;;;6.57;68.18;101414.19;6143599;23;20104;-71
2023/10/21 11:28:38;;;;;;;7.70;0.40;;;;;;;6.58;68.10;101423.75;6147164;23;20048;-73
2023/10/21 11:31:08;;;;;;;3.05;0.50;;;;;;;6.58;68.43;101423.75;6147190;23;20022;-74
2023/10/21 11:33:35;;;;;;;3.42;0.30;;;;;;;6.59;68.67;101399.53;6144350;23;20084;-73
2023/10/21 11:36:04;;;;;;;4.05;0.50;;;;;;;6.58;68.23;101415.97;6146521;23;20051;-72
2023/10/21 11:38:34;;;;;;;2.58;0.60;;;;;;;6.52;68.42;101399.47;6144012;23;20028;-73